createdAt,value
2023-01-03T00:02:13.263Z,83.34
2023-01-03T00:05:22.994Z,83.38
2023-01-03T00:08:29.272Z,83.54
2023-01-03T00:11:50.435Z,83.90
2023-01-03T00:14:56.463Z,83.44
2023-01-03T00:18:03.444Z,83.71
2023-01-03T00:21:12.233Z,83.48
2023-01-03T00:24:20.220Z,83.54
2023-01-03T00:27:26.457Z,83.70
2023-01-03T00:30:33.341Z,83.69
2023-01-03T00:33:40.524Z,83.83
2023-01-03T00:36:50.176Z,83.45
2023-01-03T00:39:56.185Z,83.72
2023-01-03T00:43:15.386Z,83.20
2023-01-03T00:46:24.410Z,83.73
2023-01-03T00:49:31.719Z,83.20
2023-01-03T00:52:40.344Z,83.30
2023-01-03T00:55:47.315Z,83.48
2023-01-03T00:58:53.817Z,83.34
2023-01-03T01:02:01.442Z,83.22
2023-01-03T01:05:08.299Z,83.24
2023-01-03T01:08:17.837Z,83.13
2023-01-03T01:11:25.752Z,83.44
2023-01-03T01:14:34.455Z,83.06
2023-01-03T01:17:40.521Z,83.52
2023-01-03T01:20:47.490Z,83.40
2023-01-03T01:23:57.218Z,83.01
2023-01-03T01:27:05.933Z,83.18
2023-01-03T01:30:13.538Z,82.77
2023-01-03T01:33:20.584Z,82.47
2023-01-03T01:36:30.449Z,82.53
2023-01-03T01:39:40.317Z,82.37
2023-01-03T01:42:58.754Z,82.19
2023-01-03T01:46:21.247Z,81.78
2023-01-03T01:49:31.118Z,81.93
2023-01-03T01:52:51.350Z,81.48
2023-01-03T01:56:09.439Z,81.75
2023-01-03T01:59:19.211Z,81.48
2023-01-03T02:02:27.400Z,81.36
2023-01-03T02:05:39.672Z,81.46
2023-01-03T02:08:46.137Z,81.16
2023-01-03T02:12:14.596Z,81.16
2023-01-03T02:15:42.031Z,80.96
2023-01-03T02:19:03.781Z,80.10
2023-01-03T02:22:55.918Z,79.89
2023-01-03T02:26:55.327Z,80.03
2023-01-03T02:30:38.204Z,80.29
2023-01-03T02:34:02.665Z,80.29
2023-01-03T02:37:25.190Z,79.86
2023-01-03T02:40:46.314Z,79.81
2023-01-03T02:44:01.969Z,79.41
2023-01-03T02:47:18.794Z,79.38
2023-01-03T02:50:35.179Z,78.95
2023-01-03T02:53:50.380Z,78.68
2023-01-03T02:57:06.437Z,77.99
2023-01-03T03:00:20.079Z,78.01
2023-01-03T03:03:35.850Z,78.55
2023-01-03T03:06:57.358Z,77.72
2023-01-03T03:10:15.980Z,77.58
2023-01-03T03:13:33.792Z,77.26
2023-01-03T03:16:51.535Z,77.62
2023-01-03T03:20:13.977Z,77.59
2023-01-03T03:23:43.292Z,77.21
2023-01-03T03:26:54.127Z,77.50
2023-01-03T03:30:04.079Z,77.73
2023-01-03T03:33:17.125Z,76.67
2023-01-03T03:36:38.564Z,76.82
2023-01-03T03:40:00.189Z,77.13
2023-01-03T03:43:31.681Z,77.72
2023-01-03T03:46:55.232Z,77.82
2023-01-03T03:50:13.314Z,77.57
2023-01-03T03:53:32.038Z,77.30
2023-01-03T03:56:44.020Z,76.88
2023-01-03T04:00:01.188Z,76.97
2023-01-03T04:03:11.990Z,77.17
2023-01-03T04:06:28.842Z,77.14
2023-01-03T04:09:37.834Z,76.66
2023-01-03T04:12:44.846Z,76.84
2023-01-03T04:15:50.895Z,76.99
2023-01-03T04:18:57.923Z,76.88
2023-01-03T04:22:04.065Z,76.71
2023-01-03T04:25:13.982Z,76.72
2023-01-03T04:28:21.143Z,76.83
2023-01-03T04:31:28.189Z,76.63
2023-01-03T04:34:34.271Z,77.10
2023-01-03T04:37:41.278Z,77.25
2023-01-03T04:40:50.049Z,76.96
2023-01-03T04:44:04.708Z,77.37
2023-01-03T04:47:11.003Z,76.69
2023-01-03T04:50:18.112Z,76.83
2023-01-03T04:53:26.227Z,77.07
2023-01-03T04:56:39.372Z,77.55
2023-01-03T04:59:45.549Z,78.32
2023-01-03T05:02:52.377Z,78.28
2023-01-03T05:06:02.921Z,78.45
2023-01-03T05:09:09.713Z,78.81
2023-01-03T05:12:18.983Z,78.71
2023-01-03T05:15:26.301Z,78.38
2023-01-03T05:18:34.165Z,78.10
2023-01-03T05:22:02.309Z,78.69
2023-01-03T05:25:22.224Z,78.35
2023-01-03T05:28:32.931Z,78.60
2023-01-03T05:31:39.081Z,78.85
2023-01-03T05:34:46.106Z,78.04
2023-01-03T05:37:55.436Z,78.16
2023-01-03T05:41:02.616Z,77.80
2023-01-03T05:44:11.390Z,77.71
2023-01-03T05:47:18.408Z,76.76
2023-01-03T05:50:24.469Z,76.82
2023-01-03T05:53:31.416Z,76.62
2023-01-03T05:56:38.299Z,76.49
2023-01-03T05:59:47.785Z,76.18
2023-01-03T06:02:53.765Z,76.13
2023-01-03T06:06:06.007Z,75.87
2023-01-03T06:09:12.191Z,76.09
2023-01-03T06:12:19.214Z,76.10
2023-01-03T06:15:28.022Z,75.44
2023-01-03T06:18:32.273Z,75.52
2023-01-03T06:21:41.655Z,75.65
2023-01-03T06:24:48.926Z,75.57
2023-01-03T06:27:55.218Z,75.42
2023-01-03T06:31:07.336Z,75.71
2023-01-03T06:34:14.042Z,75.89
2023-01-03T06:37:21.319Z,75.61
2023-01-03T06:40:32.094Z,75.12
2023-01-03T06:43:44.667Z,75.28
2023-01-03T06:47:05.698Z,75.01
2023-01-03T06:50:27.912Z,75.48
2023-01-03T06:53:39.936Z,74.91
2023-01-03T06:56:49.442Z,74.65
2023-01-03T06:59:55.595Z,74.91
2023-01-03T07:03:10.887Z,74.36
2023-01-03T07:06:18.447Z,73.93
2023-01-03T07:09:25.491Z,73.89
2023-01-03T07:12:43.923Z,73.27
2023-01-03T07:15:50.978Z,72.75
2023-01-03T07:19:01.060Z,72.12
2023-01-03T07:22:07.970Z,71.85
2023-01-03T07:25:14.305Z,71.67
2023-01-03T07:28:21.235Z,71.27
2023-01-03T07:31:27.955Z,71.38
2023-01-03T07:34:37.589Z,71.65
2023-01-03T07:37:43.695Z,71.38
2023-01-03T07:40:50.721Z,71.03
2023-01-03T07:43:54.183Z,71.27
2023-01-03T07:47:01.145Z,71.17
2023-01-03T07:50:11.067Z,71.00
2023-01-03T07:53:18.339Z,72.21
2023-01-03T07:56:26.289Z,72.19
2023-01-03T07:59:33.314Z,71.89
2023-01-03T08:02:39.849Z,71.91
2023-01-03T08:05:49.490Z,71.78
2023-01-03T08:09:08.958Z,71.13
2023-01-03T08:12:28.175Z,71.01
2023-01-03T08:15:34.280Z,70.36
2023-01-03T08:18:43.551Z,69.55
2023-01-03T08:21:52.339Z,68.40
2023-01-03T08:24:59.361Z,66.60
2023-01-03T08:28:07.559Z,64.75
2023-01-03T08:31:21.253Z,62.14
2023-01-03T08:34:33.283Z,61.29
2023-01-03T08:37:43.170Z,62.10
2023-01-03T08:40:51.172Z,61.39
2023-01-03T08:44:01.913Z,61.59
2023-01-03T08:47:12.375Z,61.36
2023-01-03T08:50:19.613Z,61.63
2023-01-03T08:53:29.137Z,62.21
2023-01-03T08:56:36.899Z,62.52
2023-01-03T08:59:43.088Z,62.55
2023-01-03T09:02:50.273Z,62.58
2023-01-03T09:05:56.581Z,62.26
2023-01-03T09:09:07.884Z,62.69
2023-01-03T09:12:14.099Z,63.44
2023-01-03T09:15:21.173Z,63.50
2023-01-03T09:18:27.319Z,63.54
2023-01-03T09:21:34.504Z,63.28
2023-01-03T09:24:43.469Z,62.82
2023-01-03T09:27:51.722Z,62.55
2023-01-03T09:30:58.242Z,62.75
2023-01-03T09:34:06.155Z,62.98
2023-01-03T09:37:12.334Z,62.89
2023-01-03T09:40:22.562Z,62.36
2023-01-03T09:43:41.411Z,62.48
2023-01-03T09:46:48.668Z,63.29
2023-01-03T09:50:27.858Z,62.93
2023-01-03T09:53:49.155Z,62.66
2023-01-03T09:57:10.344Z,62.24
2023-01-03T10:00:40.677Z,61.57
2023-01-03T10:04:10.632Z,61.40
2023-01-03T10:07:39.725Z,62.10
2023-01-03T10:11:02.687Z,62.14
2023-01-03T10:14:34.694Z,62.81
2023-01-03T10:18:01.914Z,62.54
2023-01-03T10:21:19.669Z,62.40
2023-01-03T10:24:33.327Z,61.34
2023-01-03T10:27:51.624Z,61.89
2023-01-03T10:31:24.240Z,62.11
2023-01-03T10:34:31.214Z,60.81
2023-01-03T10:37:37.463Z,60.68
2023-01-03T10:40:50.459Z,61.30
2023-01-03T10:44:02.551Z,60.43
2023-01-03T10:47:21.008Z,60.99
2023-01-03T10:50:28.386Z,61.11
2023-01-03T10:53:45.465Z,60.96
2023-01-03T10:56:54.346Z,61.03
2023-01-03T11:00:01.416Z,60.02
2023-01-03T11:03:23.939Z,59.85
2023-01-03T11:06:31.484Z,59.56
2023-01-03T11:09:50.905Z,59.09
2023-01-03T11:12:58.696Z,59.57
2023-01-03T11:16:15.900Z,59.64
2023-01-03T11:19:31.791Z,57.28
2023-01-03T11:22:49.051Z,57.02
2023-01-03T11:26:10.190Z,57.53
2023-01-03T11:29:38.196Z,57.73
2023-01-03T11:33:29.268Z,56.28
2023-01-03T11:36:55.112Z,56.86
2023-01-03T11:40:23.688Z,56.70
2023-01-03T11:43:53.603Z,56.26
2023-01-03T11:47:22.533Z,56.81
2023-01-03T11:50:47.823Z,57.58
2023-01-03T11:54:11.382Z,57.50
2023-01-03T11:57:31.317Z,57.98
2023-01-03T12:00:53.717Z,57.35
2023-01-03T12:04:28.968Z,57.78
2023-01-03T12:07:58.484Z,58.51
2023-01-03T12:11:25.183Z,58.77
2023-01-03T12:14:46.982Z,59.44
2023-01-03T12:18:05.101Z,58.49
2023-01-03T12:21:23.215Z,56.91
2023-01-03T12:24:43.499Z,55.43
2023-01-03T12:28:04.266Z,55.55
2023-01-03T12:31:31.301Z,55.14
2023-01-03T12:34:53.517Z,57.00
2023-01-03T12:38:02.244Z,58.48
2023-01-03T12:41:28.669Z,58.61
2023-01-03T12:44:45.137Z,58.48
2023-01-03T12:48:07.595Z,58.77
2023-01-03T12:51:19.104Z,59.15
2023-01-03T12:54:45.526Z,59.82
2023-01-03T12:58:25.204Z,60.31
2023-01-03T13:01:47.426Z,60.27
2023-01-03T13:05:16.753Z,60.22
2023-01-03T13:08:38.790Z,60.11
2023-01-03T13:11:55.821Z,59.81
2023-01-03T13:15:35.713Z,60.33
2023-01-03T13:18:45.282Z,60.23
2023-01-03T13:22:07.295Z,60.24
2023-01-03T13:25:35.046Z,60.86
2023-01-03T13:28:43.273Z,60.08
2023-01-03T13:32:07.871Z,60.18
2023-01-03T13:35:38.554Z,60.59
2023-01-03T13:38:45.648Z,60.64
2023-01-03T13:41:57.666Z,60.82
2023-01-03T13:45:57.790Z,60.77
2023-01-03T13:49:10.198Z,60.38
2023-01-03T13:52:40.463Z,60.70
2023-01-03T13:55:54.850Z,60.76
2023-01-03T13:59:28.485Z,60.83
2023-01-03T14:03:25.759Z,61.09
2023-01-03T14:07:04.391Z,60.80
2023-01-03T14:10:56.706Z,60.83
2023-01-03T14:14:13.610Z,60.88
2023-01-03T14:17:30.264Z,61.61
2023-01-03T14:20:42.632Z,61.65
2023-01-03T14:24:00.203Z,61.72
2023-01-03T14:27:17.967Z,61.44
2023-01-03T14:30:32.791Z,61.75
2023-01-03T14:33:45.810Z,61.81
2023-01-03T14:36:52.895Z,62.01
2023-01-03T14:40:01.908Z,61.72
2023-01-03T14:43:21.218Z,61.77
2023-01-03T14:46:28.044Z,61.61
2023-01-03T14:49:44.816Z,62.13
2023-01-03T14:52:58.589Z,62.28
2023-01-03T14:56:07.254Z,62.70
2023-01-03T14:59:19.948Z,63.25
2023-01-03T15:02:28.668Z,63.17
2023-01-03T15:05:38.649Z,63.28
2023-01-03T15:08:49.590Z,63.67
2023-01-03T15:12:02.025Z,64.00
2023-01-03T15:15:27.524Z,64.18
2023-01-03T15:18:38.023Z,64.25
2023-01-03T15:21:46.569Z,63.51
2023-01-03T15:25:05.895Z,63.65
2023-01-03T15:28:27.387Z,63.23
2023-01-03T15:31:39.683Z,63.38
2023-01-03T15:34:47.469Z,63.22
2023-01-03T15:37:58.529Z,62.79
2023-01-03T15:41:39.484Z,62.95
2023-01-03T15:44:46.159Z,61.97
2023-01-03T15:48:04.963Z,61.85
2023-01-03T15:51:14.170Z,61.16
2023-01-03T15:54:23.690Z,61.46
2023-01-03T15:57:34.258Z,61.48
2023-01-03T16:00:41.402Z,61.39
2023-01-03T16:03:54.159Z,60.96
2023-01-03T16:07:01.546Z,61.07
2023-01-03T16:10:09.686Z,61.00
2023-01-03T16:13:16.861Z,61.68
2023-01-03T16:16:29.868Z,61.20
2023-01-03T16:19:39.623Z,61.55
2023-01-03T16:23:00.360Z,61.91
2023-01-03T16:26:08.560Z,61.75
2023-01-03T16:29:16.057Z,61.95
2023-01-03T16:32:27.713Z,61.96
2023-01-03T16:35:36.435Z,61.75
2023-01-03T16:38:43.983Z,62.40
2023-01-03T16:42:04.715Z,62.89
2023-01-03T16:45:13.464Z,63.03
2023-01-03T16:48:23.985Z,62.93
2023-01-03T16:51:44.650Z,62.76
2023-01-03T16:54:54.458Z,63.24
2023-01-03T16:58:02.157Z,63.92
2023-01-03T17:01:09.042Z,63.83
2023-01-03T17:04:16.175Z,64.19
2023-01-03T17:07:27.700Z,64.57
2023-01-03T17:10:40.861Z,64.61
2023-01-03T17:13:51.266Z,64.81
2023-01-03T17:16:58.368Z,64.42
2023-01-03T17:20:05.864Z,64.91
2023-01-03T17:23:16.103Z,64.96
2023-01-03T17:26:26.538Z,64.97
2023-01-03T17:29:34.868Z,64.46
2023-01-03T17:32:41.007Z,64.56
2023-01-03T17:35:50.862Z,64.70
2023-01-03T17:39:03.987Z,64.70
2023-01-03T17:42:19.975Z,64.35
2023-01-03T17:45:40.665Z,64.38
2023-01-03T17:49:00.079Z,64.45
2023-01-03T17:52:09.339Z,64.61
2023-01-03T17:55:28.085Z,64.84
2023-01-03T17:58:40.074Z,64.79
2023-01-03T18:01:47.766Z,65.03
2023-01-03T18:08:26.212Z,65.41
2023-01-03T18:11:35.709Z,66.14
2023-01-03T18:14:42.629Z,66.22
2023-01-03T18:17:50.115Z,65.72
2023-01-03T18:20:58.821Z,65.87
2023-01-03T18:24:09.680Z,65.27
2023-01-03T18:27:20.389Z,65.29
2023-01-03T18:30:26.635Z,65.20
2023-01-03T18:33:33.902Z,64.68
2023-01-03T18:36:45.777Z,64.39
2023-01-03T18:39:53.018Z,64.59
2023-01-03T18:43:14.301Z,64.48
2023-01-03T18:46:23.171Z,64.57
2023-01-03T18:49:29.436Z,64.94
2023-01-03T18:52:41.263Z,64.83
2023-01-03T18:55:48.344Z,64.60
2023-01-03T18:59:02.842Z,64.70
2023-01-03T19:02:17.935Z,64.85
2023-01-03T19:05:25.463Z,64.58
2023-01-03T19:08:36.397Z,64.69
2023-01-03T19:11:44.085Z,64.65
2023-01-03T19:14:53.044Z,64.74
2023-01-03T19:18:01.596Z,65.11
2023-01-03T19:21:08.537Z,65.38
2023-01-03T19:24:38.435Z,65.37
2023-01-03T19:27:50.419Z,65.11
2023-01-03T19:31:01.282Z,65.20
2023-01-03T19:34:09.054Z,64.91
2023-01-03T19:37:16.868Z,64.80
2023-01-03T19:40:30.937Z,64.83
2023-01-03T19:43:38.023Z,64.64
2023-01-03T19:46:47.738Z,64.90
2023-01-03T19:49:55.102Z,65.08
2023-01-03T19:53:02.286Z,65.29
2023-01-03T19:56:25.700Z,65.18
2023-01-03T19:59:38.062Z,65.24
2023-01-03T20:02:49.679Z,65.30
2023-01-03T20:05:56.343Z,65.13
2023-01-03T20:09:03.452Z,65.08
2023-01-03T20:12:16.182Z,65.48
2023-01-03T20:15:28.864Z,65.35
2023-01-03T20:18:41.615Z,65.42
2023-01-03T20:21:52.895Z,65.46
2023-01-03T20:24:59.291Z,66.04
2023-01-03T20:28:07.291Z,66.22
2023-01-03T20:31:19.969Z,66.51
2023-01-03T20:34:30.355Z,66.73
2023-01-03T20:37:36.945Z,67.13
2023-01-03T20:40:44.799Z,67.23
2023-01-03T20:43:52.859Z,67.06
2023-01-03T20:47:00.911Z,67.01
2023-01-03T20:50:19.922Z,67.17
2023-01-03T20:53:30.931Z,67.88
2023-01-03T20:56:37.454Z,67.25
2023-01-03T20:59:44.567Z,67.58
2023-01-03T21:02:51.545Z,67.71
2023-01-03T21:06:02.493Z,68.21
2023-01-03T21:09:11.029Z,68.47
2023-01-03T21:12:18.581Z,68.76
2023-01-03T21:15:25.233Z,69.04
2023-01-03T21:18:32.443Z,69.24
2023-01-03T21:21:42.043Z,69.29
2023-01-03T21:24:53.934Z,69.51
2023-01-03T21:28:05.399Z,69.58
2023-01-03T21:31:21.906Z,69.85
2023-01-03T21:34:28.384Z,70.12
2023-01-03T21:37:37.885Z,70.44
2023-01-03T21:40:44.030Z,70.11
2023-01-03T21:43:51.118Z,70.01
2023-01-03T21:46:57.308Z,69.91
2023-01-03T21:50:04.413Z,70.07
2023-01-03T21:53:17.134Z,70.28
2023-01-03T21:56:28.753Z,70.48
2023-01-03T21:59:38.128Z,70.83
2023-01-03T22:03:00.305Z,71.43
2023-01-03T22:06:13.861Z,72.10
2023-01-03T22:09:35.966Z,72.77
2023-01-03T22:12:42.389Z,72.72
2023-01-03T22:15:49.660Z,72.94
2023-01-03T22:18:56.718Z,73.16
2023-01-03T22:22:03.733Z,72.83
2023-01-03T22:25:17.345Z,73.37
2023-01-03T22:28:25.428Z,73.77
2023-01-03T22:31:31.657Z,74.25
2023-01-03T22:34:40.460Z,74.43
2023-01-03T22:37:46.684Z,74.79
2023-01-03T22:40:56.234Z,75.06
2023-01-03T22:44:02.406Z,75.42
2023-01-03T22:47:09.512Z,75.68
2023-01-03T22:50:15.711Z,75.66
2023-01-03T22:53:22.592Z,75.02
2023-01-03T22:56:31.308Z,74.87
2023-01-03T22:59:38.253Z,74.95
2023-01-03T23:02:44.353Z,75.86
2023-01-03T23:05:51.359Z,75.64
2023-01-03T23:08:57.446Z,76.45
2023-01-03T23:12:19.723Z,77.25
2023-01-03T23:15:25.875Z,76.02
2023-01-03T23:18:36.628Z,74.83
2023-01-03T23:21:45.650Z,76.22
2023-01-03T23:24:52.476Z,75.41
2023-01-03T23:28:02.196Z,74.90
2023-01-03T23:31:09.470Z,75.38
2023-01-03T23:34:16.463Z,76.80
2023-01-03T23:37:23.504Z,77.19
2023-01-03T23:40:29.675Z,75.73
2023-01-03T23:43:40.777Z,76.51
2023-01-03T23:46:46.847Z,77.96
2023-01-03T23:49:53.837Z,77.89
2023-01-03T23:53:01.549Z,75.39
2023-01-03T23:56:11.754Z,75.89
2023-01-03T23:59:21.826Z,75.07
